LPCS Airport Information

Runway Information
Runway 17 Length 3904 ft width 98 ft
Elevation 326 ft Threshold 0 ft Heading 164
Runway 35 Length 3904 ft Width 98 ft
Elevation 287 ft Threshold 0 ft Heading 344
Airport Frequencies
Type GND Name GND Frequency 121.825 MHZ
Type TWR Name TWR Frequency 120.3 MHZ
Airport Navaids
Type NDB Name Cascais Frequency 359 KHZ
Type VOR-DME Name Cascais Frequency 114300 KHZ
Airport Weather Information & NOTAM
ADDS - METARS form results

(1024 UTC 16 November 2018)
Data provider http://aviationweather.gov/metar/data/
 
METAR text: LPCS 161000Z 08006KT 040V120 CAVOK 16/13 Q1016
Conditions at: LPCS (CASCAIS , PT) observed 1000 UTC 16 November 2018
Temperature: 16.0°C (61°F)
Dewpoint: 13.0°C (55°F) [RH = 82%]
Pressure (altimeter): 30.00 inches Hg (1016.0 mb)
Winds: from the E (80 degrees) at 7 MPH (6 knots; 3.1 m/s)
Visibility: 6 or more miles (10+ km)
Ceiling: ceiling and visibility are OK
Clouds: unknown
Weather: no significant weather observed at this time

METAR text: LPCS 160930Z 09007KT 060V120 CAVOK 15/13 Q1016
Conditions at: LPCS (CASCAIS , PT) observed 0930 UTC 16 November 2018
Temperature: 15.0°C (59°F)
Dewpoint: 13.0°C (55°F) [RH = 88%]
Pressure (altimeter): 30.00 inches Hg (1016.0 mb)
Winds: from the E (90 degrees) at 8 MPH (7 knots; 3.6 m/s)
Visibility: 6 or more miles (10+ km)
Ceiling: ceiling and visibility are OK
Clouds: unknown
Weather: no significant weather observed at this time

Forecast for: LPCS (CASCAIS , PT)
Text: TAF LPCS 160800Z 1609/1618 08005KT CAVOK
Forecast period: 0900 to 1100 UTC 16 November 2018
Forecast type: FROM: standard forecast or significant change
Winds: from the E (80 degrees) at 6 MPH (5 knots; 2.6 m/s)
Visibility: 6 or more miles 10+ km)
Ceiling: unknown
Clouds: missing
Weather: NSW  (no significant weather)
Text: BECMG 1611/1613 12007KT
Forecast period: 1100 to 1800 UTC 16 November 2018
Forecast type: BECOMING: Conditions expected to become as follows by 1300 UTC 16 November 2018
Winds: from the ESE (120 degrees) at 8 MPH (7 knots; 3.6 m/s)
Visibility: 6 or more miles 10+ km)
Ceiling: unknown
Clouds: missing
Weather: NSW  (no significant weather)